createdAt,value
2022-07-26T00:02:18.026Z,97.91
2022-07-26T00:07:07.882Z,100.00
2022-07-26T00:11:57.456Z,100.00
2022-07-26T00:16:47.355Z,100.00
2022-07-26T00:21:40.902Z,98.01
2022-07-26T00:26:30.844Z,100.00
2022-07-26T00:31:20.622Z,99.82
2022-07-26T00:36:10.920Z,94.40
2022-07-26T00:41:03.052Z,95.17
2022-07-26T00:45:52.684Z,94.02
2022-07-26T00:50:42.225Z,92.39
2022-07-26T00:55:31.851Z,89.86
2022-07-26T01:00:27.885Z,89.31
2022-07-26T01:05:17.503Z,88.15
2022-07-26T01:10:07.714Z,88.46
2022-07-26T01:14:57.369Z,89.05
2022-07-26T01:19:49.421Z,88.76
2022-07-26T01:24:41.777Z,88.19
2022-07-26T01:29:35.423Z,89.02
2022-07-26T01:34:26.067Z,88.95
2022-07-26T01:39:15.864Z,87.99
2022-07-26T01:44:09.129Z,88.28
2022-07-26T01:48:59.235Z,87.58
2022-07-26T01:53:48.783Z,86.37
2022-07-26T01:58:38.368Z,86.32
2022-07-26T02:03:30.654Z,86.19
2022-07-26T02:08:20.739Z,86.55
2022-07-26T02:13:12.334Z,86.11
2022-07-26T02:18:01.909Z,85.25
2022-07-26T02:22:53.926Z,85.61
2022-07-26T02:27:43.430Z,86.04
2022-07-26T02:32:32.898Z,85.76
2022-07-26T02:37:22.413Z,85.92
2022-07-26T02:42:14.884Z,85.22
2022-07-26T02:47:04.410Z,85.37
2022-07-26T02:51:54.042Z,85.52
2022-07-26T02:56:43.624Z,85.77
2022-07-26T03:01:36.103Z,86.03
2022-07-26T03:06:25.634Z,87.38
2022-07-26T03:11:15.117Z,88.27
2022-07-26T03:16:04.736Z,88.11
2022-07-26T03:20:56.911Z,88.75
2022-07-26T03:25:46.449Z,88.40
2022-07-26T03:30:36.205Z,91.45
2022-07-26T03:35:26.027Z,91.50
2022-07-26T03:40:19.257Z,94.93
2022-07-26T03:45:09.455Z,93.65
2022-07-26T03:49:58.909Z,94.51
2022-07-26T03:54:48.420Z,97.21
2022-07-26T03:59:40.422Z,95.58
2022-07-26T04:04:30.746Z,96.53
2022-07-26T04:09:20.432Z,96.36
2022-07-26T04:14:10.710Z,98.28
2022-07-26T04:19:03.209Z,97.28
2022-07-26T04:23:52.818Z,98.81
2022-07-26T04:28:42.628Z,97.42
2022-07-26T04:33:33.139Z,98.34
2022-07-26T04:38:25.275Z,98.40
2022-07-26T04:43:15.648Z,96.36
2022-07-26T04:48:07.308Z,96.54
2022-07-26T04:52:58.353Z,96.42
2022-07-26T04:57:50.800Z,96.57
2022-07-26T05:02:49.879Z,96.51
2022-07-26T05:07:43.723Z,96.07
2022-07-26T05:12:33.207Z,93.95
2022-07-26T05:17:25.429Z,95.79
2022-07-26T05:22:16.246Z,96.12
2022-07-26T05:27:06.643Z,94.81
2022-07-26T05:31:57.674Z,94.52
2022-07-26T05:36:50.941Z,96.23
2022-07-26T05:41:43.679Z,97.43
2022-07-26T05:46:33.496Z,97.40
2022-07-26T05:51:22.931Z,100.00
2022-07-26T05:56:14.974Z,100.00
2022-07-26T06:01:04.477Z,100.00
2022-07-26T06:05:56.809Z,100.00
2022-07-26T06:10:46.708Z,100.00
2022-07-26T06:15:38.950Z,100.00
2022-07-26T06:20:28.568Z,100.00
2022-07-26T06:25:17.920Z,100.00
2022-07-26T06:30:07.847Z,100.00
2022-07-26T06:35:03.811Z,100.00
2022-07-26T06:39:53.464Z,100.00
2022-07-26T06:44:42.912Z,100.00
2022-07-26T06:49:32.529Z,100.00
2022-07-26T06:54:25.197Z,100.00
2022-07-26T06:59:14.747Z,100.00
2022-07-26T07:04:04.202Z,100.00
2022-07-26T07:08:53.571Z,100.00
2022-07-26T07:13:46.477Z,100.00
2022-07-26T07:18:35.933Z,100.00
2022-07-26T07:23:25.357Z,100.00
2022-07-26T07:28:14.972Z,100.00
2022-07-26T07:33:09.439Z,100.00
2022-07-26T07:38:12.540Z,100.00
2022-07-26T07:43:02.083Z,100.00
2022-07-26T07:47:51.507Z,100.00
2022-07-26T07:52:43.794Z,100.00
2022-07-26T07:57:35.659Z,100.00
2022-07-26T08:02:25.088Z,100.00
2022-07-26T08:07:14.557Z,100.00
2022-07-26T08:12:07.352Z,100.00
2022-07-26T08:16:56.838Z,100.00
2022-07-26T08:21:46.804Z,100.00
2022-07-26T08:26:36.507Z,100.00
2022-07-26T08:31:28.752Z,100.00
2022-07-26T08:36:18.400Z,100.00
2022-07-26T08:41:07.985Z,100.00
2022-07-26T08:46:02.630Z,100.00
2022-07-26T08:50:54.784Z,100.00
2022-07-26T08:56:05.787Z,100.00
2022-07-26T09:01:05.616Z,100.00
2022-07-26T09:06:00.714Z,100.00
2022-07-26T09:10:50.109Z,100.00
2022-07-26T09:15:39.538Z,100.00
2022-07-26T09:20:30.071Z,100.00
2022-07-26T09:25:26.248Z,100.00
2022-07-26T09:30:16.179Z,100.00
2022-07-26T09:35:45.411Z,100.00
2022-07-26T09:40:25.278Z,100.00
2022-07-26T09:45:18.791Z,100.00
2022-07-26T09:50:12.588Z,100.00
2022-07-26T09:55:06.872Z,100.00
2022-07-26T09:59:59.566Z,100.00
2022-07-26T10:04:49.003Z,100.00
2022-07-26T10:09:43.456Z,100.00
2022-07-26T10:14:45.802Z,100.00
2022-07-26T10:19:45.777Z,97.56
2022-07-26T10:24:41.307Z,97.91
2022-07-26T10:29:31.195Z,99.34
2022-07-26T10:34:32.953Z,97.56
2022-07-26T10:39:27.485Z,97.70
2022-07-26T10:44:21.980Z,99.08
2022-07-26T10:49:12.466Z,100.00
2022-07-26T10:54:02.821Z,97.41
2022-07-26T10:58:55.180Z,98.24
2022-07-26T11:03:46.038Z,96.20
2022-07-26T11:08:35.469Z,94.82
2022-07-26T11:13:25.674Z,95.30
2022-07-26T11:18:22.265Z,93.71
2022-07-26T11:23:26.933Z,93.78
2022-07-26T11:28:16.368Z,91.38
2022-07-26T11:33:05.800Z,87.33
2022-07-26T11:38:11.252Z,86.08
2022-07-26T11:43:01.775Z,85.32
2022-07-26T11:47:51.365Z,84.99
2022-07-26T11:52:40.761Z,83.59
2022-07-26T11:57:33.871Z,83.23
2022-07-26T12:02:24.562Z,83.42
2022-07-26T12:07:15.020Z,84.71
2022-07-26T12:12:05.039Z,83.14
2022-07-26T12:16:57.406Z,80.16
2022-07-26T12:21:49.485Z,81.36
2022-07-26T12:26:39.447Z,80.32
2022-07-26T12:31:29.628Z,79.90
2022-07-26T12:36:27.491Z,80.92
2022-07-26T12:41:32.902Z,79.60
2022-07-26T12:46:22.547Z,78.48
2022-07-26T12:51:12.049Z,77.60
2022-07-26T12:56:04.338Z,79.14
2022-07-26T13:00:54.463Z,77.90
2022-07-26T13:05:43.833Z,70.89
2022-07-26T13:10:35.002Z,73.67
2022-07-26T13:15:35.226Z,71.04
2022-07-26T13:20:27.281Z,70.26
2022-07-26T13:25:16.751Z,71.36
2022-07-26T13:30:06.585Z,69.95
2022-07-26T13:34:58.622Z,70.50
2022-07-26T13:39:47.985Z,70.01
2022-07-26T13:44:37.388Z,71.61
2022-07-26T13:49:26.823Z,70.74
2022-07-26T13:54:19.706Z,69.35
2022-07-26T13:59:09.693Z,71.43
2022-07-26T14:03:59.390Z,66.27
2022-07-26T14:08:48.801Z,65.46
2022-07-26T14:13:43.020Z,67.54
2022-07-26T14:18:32.601Z,66.09
2022-07-26T14:23:21.980Z,65.38
2022-07-26T14:28:11.614Z,67.83
2022-07-26T14:33:05.104Z,66.67
2022-07-26T14:37:54.488Z,66.15
2022-07-26T14:42:43.979Z,67.56
2022-07-26T14:47:33.407Z,68.29
2022-07-26T14:52:25.502Z,66.11
2022-07-26T14:57:14.949Z,65.50
2022-07-26T15:02:06.827Z,65.79
2022-07-26T15:06:56.211Z,65.08
2022-07-26T15:11:49.490Z,65.32
2022-07-26T15:16:38.985Z,65.34
2022-07-26T15:21:28.378Z,63.69
2022-07-26T15:26:17.804Z,62.79
2022-07-26T15:31:10.110Z,63.60
2022-07-26T15:36:00.482Z,64.36
2022-07-26T15:40:53.968Z,64.62
2022-07-26T15:45:44.287Z,65.98
2022-07-26T15:50:37.362Z,65.18
2022-07-26T15:55:26.851Z,62.80
2022-07-26T16:00:18.773Z,62.20
2022-07-26T16:05:09.004Z,63.29
2022-07-26T16:10:01.811Z,62.89
2022-07-26T16:14:51.282Z,64.16
2022-07-26T16:19:42.852Z,63.77
2022-07-26T16:24:34.100Z,63.51
2022-07-26T16:29:26.685Z,63.54
2022-07-26T16:34:16.189Z,64.09
2022-07-26T16:39:06.684Z,64.82
2022-07-26T16:43:57.838Z,64.03
2022-07-26T16:48:52.308Z,65.84
2022-07-26T16:53:41.893Z,62.96
2022-07-26T16:58:33.708Z,63.07
2022-07-26T17:03:24.117Z,64.25
2022-07-26T17:08:16.333Z,62.21
2022-07-26T17:13:05.802Z,62.79
2022-07-26T17:17:56.317Z,62.90
2022-07-26T17:22:46.871Z,62.14
2022-07-26T17:27:38.949Z,64.65
2022-07-26T17:32:28.526Z,65.24
2022-07-26T17:37:18.564Z,64.57
2022-07-26T17:42:14.760Z,62.45
2022-07-26T17:47:28.458Z,64.29
2022-07-26T17:52:18.241Z,63.46
2022-07-26T17:57:08.457Z,62.86
2022-07-26T18:01:58.035Z,62.37
2022-07-26T18:06:50.245Z,63.49
2022-07-26T18:11:41.523Z,64.05
2022-07-26T18:16:31.100Z,63.85
2022-07-26T18:21:22.013Z,65.04
2022-07-26T18:26:14.646Z,66.19
2022-07-26T18:31:04.624Z,65.95
2022-07-26T18:35:54.286Z,65.28
2022-07-26T18:40:46.576Z,66.03
2022-07-26T18:45:39.145Z,67.05
2022-07-26T18:50:31.068Z,68.03
2022-07-26T18:55:22.209Z,68.54
2022-07-26T19:00:14.648Z,70.15
2022-07-26T19:05:07.175Z,71.29
2022-07-26T19:09:58.809Z,72.47
2022-07-26T19:14:50.955Z,72.65
2022-07-26T19:19:43.486Z,73.17
2022-07-26T19:24:36.242Z,73.82
2022-07-26T19:29:25.783Z,73.45
2022-07-26T19:34:15.883Z,74.21
2022-07-26T19:39:05.329Z,74.46
2022-07-26T19:43:57.280Z,75.43
2022-07-26T19:48:48.342Z,74.29
2022-07-26T19:53:39.921Z,74.54
2022-07-26T19:58:33.891Z,75.71
2022-07-26T20:03:26.221Z,75.37
2022-07-26T20:08:16.286Z,75.56
2022-07-26T20:13:05.951Z,75.25
2022-07-26T20:17:55.714Z,75.79
2022-07-26T20:22:50.214Z,75.88
2022-07-26T20:27:40.083Z,76.88
2022-07-26T20:32:29.717Z,77.36
2022-07-26T20:37:19.374Z,77.45
2022-07-26T20:42:14.872Z,77.31
2022-07-26T20:47:11.791Z,78.33
2022-07-26T20:52:04.392Z,78.15
2022-07-26T20:56:54.076Z,78.04
2022-07-26T21:01:46.563Z,78.22
2022-07-26T21:06:36.416Z,78.51
2022-07-26T21:11:26.091Z,79.04
2022-07-26T21:16:15.931Z,79.68
2022-07-26T21:21:08.674Z,79.83
2022-07-26T21:26:00.569Z,79.73
2022-07-26T21:30:50.661Z,79.18
2022-07-26T21:35:41.167Z,79.55
2022-07-26T21:40:33.735Z,79.45
2022-07-26T21:45:23.439Z,79.88
2022-07-26T21:50:13.373Z,80.22
2022-07-26T21:55:03.082Z,79.75
2022-07-26T21:59:55.405Z,80.22
2022-07-26T22:04:46.190Z,79.86
2022-07-26T22:09:35.808Z,79.97
2022-07-26T22:14:25.447Z,80.05
2022-07-26T22:19:17.899Z,79.94
2022-07-26T22:24:08.326Z,80.08
2022-07-26T22:28:58.017Z,80.43
2022-07-26T22:33:47.722Z,80.55
2022-07-26T22:38:40.117Z,80.74
2022-07-26T22:43:29.786Z,81.19
2022-07-26T22:48:19.481Z,81.21
2022-07-26T22:53:09.317Z,81.39
2022-07-26T22:58:02.221Z,81.72
2022-07-26T23:02:52.120Z,81.93
2022-07-26T23:07:42.522Z,82.08
2022-07-26T23:12:35.720Z,82.15
2022-07-26T23:17:28.151Z,82.09
2022-07-26T23:22:17.896Z,82.38
2022-07-26T23:27:07.830Z,83.72
2022-07-26T23:31:57.351Z,84.12
2022-07-26T23:36:49.433Z,84.16
2022-07-26T23:41:39.010Z,84.36
2022-07-26T23:46:28.997Z,84.75
2022-07-26T23:51:19.574Z,84.50
2022-07-26T23:56:11.675Z,84.88
